createdAt,value
2022-09-17T00:00:27.991Z,1009.82
2022-09-17T00:01:28.037Z,1009.74
2022-09-17T00:02:27.968Z,1009.74
2022-09-17T00:03:27.948Z,1009.71
2022-09-17T00:04:27.991Z,1009.74
2022-09-17T00:05:27.940Z,1009.75
2022-09-17T00:06:27.931Z,1009.64
2022-09-17T00:07:27.887Z,1009.66
2022-09-17T00:08:27.890Z,1009.64
2022-09-17T00:09:27.853Z,1009.66
2022-09-17T00:10:27.864Z,1009.70
2022-09-17T00:11:27.868Z,1009.65
2022-09-17T00:12:27.828Z,1009.71
2022-09-17T00:13:27.826Z,1009.70
2022-09-17T00:14:27.797Z,1009.68
2022-09-17T00:15:27.796Z,1009.74
2022-09-17T00:16:27.835Z,1009.70
2022-09-17T00:17:27.757Z,1009.77
2022-09-17T00:18:27.746Z,1009.70
2022-09-17T00:19:27.726Z,1009.77
2022-09-17T00:20:27.715Z,1009.70
2022-09-17T00:21:27.709Z,1009.74
2022-09-17T00:22:27.716Z,1009.75
2022-09-17T00:23:27.667Z,1009.74
2022-09-17T00:24:27.658Z,1009.74
2022-09-17T00:25:27.646Z,1009.74
2022-09-17T00:26:27.641Z,1009.71
2022-09-17T00:27:27.646Z,1009.69
2022-09-17T00:28:27.606Z,1009.72
2022-09-17T00:29:27.589Z,1009.73
2022-09-17T00:30:27.580Z,1009.73
2022-09-17T00:31:27.615Z,1009.77
2022-09-17T00:32:27.574Z,1009.77
2022-09-17T00:33:27.548Z,1009.76
2022-09-17T00:34:27.528Z,1009.74
2022-09-17T00:35:27.548Z,1009.75
2022-09-17T00:36:27.526Z,1009.77
2022-09-17T00:37:27.509Z,1009.73
2022-09-17T00:38:27.468Z,1009.81
2022-09-17T00:39:27.465Z,1009.85
2022-09-17T00:40:27.537Z,1009.88
2022-09-17T00:41:27.435Z,1009.83
2022-09-17T00:42:27.455Z,1009.80
2022-09-17T00:43:27.400Z,1009.88
2022-09-17T00:44:27.389Z,1009.91
2022-09-17T00:45:27.380Z,1009.96
2022-09-17T00:46:27.399Z,1009.91
2022-09-17T00:47:27.370Z,1009.90
2022-09-17T00:48:27.337Z,1009.89
2022-09-17T00:49:27.321Z,1009.91
2022-09-17T00:50:27.311Z,1009.91
2022-09-17T00:51:27.290Z,1009.92
2022-09-17T00:52:27.311Z,1009.93
2022-09-17T00:53:27.260Z,1009.94
2022-09-17T00:54:27.260Z,1009.97
2022-09-17T00:55:27.252Z,1009.99
2022-09-17T00:56:27.228Z,1009.96
2022-09-17T00:57:27.230Z,1009.96
2022-09-17T00:58:27.201Z,1009.96
2022-09-17T00:59:27.212Z,1009.97
2022-09-17T01:00:27.181Z,1010.02
2022-09-17T01:01:27.245Z,1009.96
2022-09-17T01:02:27.240Z,1009.98
2022-09-17T01:03:27.142Z,1009.98
2022-09-17T01:04:27.122Z,1009.93
2022-09-17T01:05:27.100Z,1009.95
2022-09-17T01:06:27.092Z,1009.99
2022-09-17T01:07:27.110Z,1010.02
2022-09-17T01:08:27.077Z,1010.02
2022-09-17T01:09:27.042Z,1009.99
2022-09-17T01:10:27.045Z,1010.02
2022-09-17T01:11:27.023Z,1009.98
2022-09-17T01:12:27.042Z,1009.97
2022-09-17T01:13:27.020Z,1009.97
2022-09-17T01:14:26.983Z,1009.96
2022-09-17T01:15:26.985Z,1010.00
2022-09-17T01:16:27.035Z,1009.97
2022-09-17T01:17:26.964Z,1009.98
2022-09-17T01:18:26.941Z,1010.07
2022-09-17T01:19:26.915Z,1010.09
2022-09-17T01:20:26.904Z,1010.07
2022-09-17T01:21:26.884Z,1009.99
2022-09-17T01:22:26.906Z,1010.05
2022-09-17T01:23:26.853Z,1009.99
2022-09-17T01:24:26.864Z,1010.08
2022-09-17T01:25:26.836Z,1010.05
2022-09-17T01:26:26.826Z,1010.04
2022-09-17T01:27:26.828Z,1010.02
2022-09-17T01:28:26.829Z,1010.10
2022-09-17T01:29:26.798Z,1010.08
2022-09-17T01:30:26.784Z,1010.08
2022-09-17T01:31:26.785Z,1010.05
2022-09-17T01:32:26.774Z,1010.04
2022-09-17T01:33:26.725Z,1010.00
2022-09-17T01:34:26.716Z,1010.05
2022-09-17T01:35:26.707Z,1010.01
2022-09-17T01:36:26.690Z,1010.03
2022-09-17T01:37:30.531Z,1010.04
2022-09-17T01:38:26.676Z,1010.09
2022-09-17T01:39:26.667Z,1010.07
2022-09-17T01:40:26.666Z,1010.11
2022-09-17T01:41:26.623Z,1010.08
2022-09-17T01:42:26.634Z,1010.06
2022-09-17T01:43:26.597Z,1010.11
2022-09-17T01:44:26.578Z,1010.11
2022-09-17T01:45:26.577Z,1010.11
2022-09-17T01:46:26.631Z,1010.09
2022-09-17T01:47:26.575Z,1010.13
2022-09-17T01:48:26.517Z,1010.12
2022-09-17T01:49:26.508Z,1010.11
2022-09-17T01:50:26.508Z,1010.10
2022-09-17T01:51:26.487Z,1010.10
2022-09-17T01:52:26.499Z,1010.10
2022-09-17T01:53:26.463Z,1010.06
2022-09-17T01:54:26.443Z,1010.08
2022-09-17T01:55:26.440Z,1010.13
2022-09-17T01:56:26.415Z,1010.12
2022-09-17T01:57:26.438Z,1010.11
2022-09-17T01:58:26.378Z,1010.18
2022-09-17T01:59:26.419Z,1010.17
2022-09-17T02:00:26.359Z,1010.16
2022-09-17T02:01:26.413Z,1010.15
2022-09-17T02:02:26.447Z,1010.17
2022-09-17T02:03:26.322Z,1010.13
2022-09-17T02:04:26.306Z,1010.13
2022-09-17T02:05:26.307Z,1010.18
2022-09-17T02:06:26.299Z,1010.14
2022-09-17T02:07:26.309Z,1010.17
2022-09-17T02:08:26.991Z,1010.20
2022-09-17T02:09:26.240Z,1010.15
2022-09-17T02:10:26.239Z,1010.20
2022-09-17T02:11:26.220Z,1010.20
2022-09-17T02:12:26.239Z,1010.20
2022-09-17T02:13:26.192Z,1010.18
2022-09-17T02:14:26.171Z,1010.23
2022-09-17T02:15:26.174Z,1010.18
2022-09-17T02:16:26.210Z,1010.21
2022-09-17T02:17:26.164Z,1010.23
2022-09-17T02:18:26.119Z,1010.24
2022-09-17T02:19:26.103Z,1010.22
2022-09-17T02:20:26.090Z,1010.22
2022-09-17T02:21:26.089Z,1010.22
2022-09-17T02:22:26.091Z,1010.18
2022-09-17T02:23:26.059Z,1010.18
2022-09-17T02:24:26.031Z,1010.25
2022-09-17T02:25:26.022Z,1010.23
2022-09-17T02:26:26.012Z,1010.22
2022-09-17T02:27:26.022Z,1010.15
2022-09-17T02:28:26.200Z,1010.12
2022-09-17T02:29:25.972Z,1010.14
2022-09-17T02:30:25.962Z,1010.15
2022-09-17T02:31:26.004Z,1010.19
2022-09-17T02:32:25.952Z,1010.16
2022-09-17T02:33:25.924Z,1010.16
2022-09-17T02:34:25.892Z,1010.13
2022-09-17T02:35:25.892Z,1010.14
2022-09-17T02:36:25.874Z,1010.15
2022-09-17T02:37:25.936Z,1010.12
2022-09-17T02:38:25.852Z,1010.16
2022-09-17T02:39:25.836Z,1010.13
2022-09-17T02:40:25.963Z,1010.12
2022-09-17T02:41:25.835Z,1010.12
2022-09-17T02:42:25.814Z,1010.07
2022-09-17T02:43:25.784Z,1010.11
2022-09-17T02:44:25.766Z,1010.12
2022-09-17T02:45:25.752Z,1010.17
2022-09-17T02:46:25.783Z,1010.18
2022-09-17T02:47:25.754Z,1010.20
2022-09-17T02:48:25.706Z,1010.16
2022-09-17T02:49:25.703Z,1010.24
2022-09-17T02:50:25.685Z,1010.29
2022-09-17T02:51:25.675Z,1010.32
2022-09-17T02:52:25.685Z,1010.31
2022-09-17T02:53:25.660Z,1010.29
2022-09-17T02:54:25.639Z,1010.20
2022-09-17T02:55:25.627Z,1010.29
2022-09-17T02:56:25.610Z,1010.29
2022-09-17T02:57:25.635Z,1010.22
2022-09-17T02:58:25.577Z,1010.26
2022-09-17T02:59:25.565Z,1010.28
2022-09-17T03:00:25.576Z,1010.32
2022-09-17T03:01:25.547Z,1010.31
2022-09-17T03:02:25.638Z,1010.31
2022-09-17T03:03:25.516Z,1010.34
2022-09-17T03:04:25.502Z,1010.33
2022-09-17T03:05:25.487Z,1010.36
2022-09-17T03:06:25.473Z,1010.33
2022-09-17T03:07:25.487Z,1010.34
2022-09-17T03:08:25.446Z,1010.29
2022-09-17T03:09:25.447Z,1010.30
2022-09-17T03:10:25.425Z,1010.31
2022-09-17T03:11:25.408Z,1010.35
2022-09-17T03:12:25.415Z,1010.38
2022-09-17T03:13:25.396Z,1010.39
2022-09-17T03:14:25.358Z,1010.37
2022-09-17T03:15:25.357Z,1010.36
2022-09-17T03:16:25.366Z,1010.37
2022-09-17T03:17:25.347Z,1010.36
2022-09-17T03:18:25.321Z,1010.37
2022-09-17T03:19:25.310Z,1010.34
2022-09-17T03:20:25.290Z,1010.35
2022-09-17T03:21:25.307Z,1010.33
2022-09-17T03:22:25.280Z,1010.28
2022-09-17T03:23:25.251Z,1010.30
2022-09-17T03:24:25.228Z,1010.34
2022-09-17T03:25:25.227Z,1010.35
2022-09-17T03:26:25.199Z,1010.31
2022-09-17T03:27:25.219Z,1010.34
2022-09-17T03:28:25.179Z,1010.30
2022-09-17T03:29:25.170Z,1010.34
2022-09-17T03:30:25.150Z,1010.35
2022-09-17T03:31:25.177Z,1010.31
2022-09-17T03:32:25.150Z,1010.32
2022-09-17T03:33:25.137Z,1010.35
2022-09-17T03:34:25.100Z,1010.35
2022-09-17T03:35:25.091Z,1010.35
2022-09-17T03:36:25.070Z,1010.33
2022-09-17T03:37:25.093Z,1010.32
2022-09-17T03:38:25.042Z,1010.29
2022-09-17T03:39:25.032Z,1010.37
2022-09-17T03:40:25.091Z,1010.32
2022-09-17T03:41:25.014Z,1010.35
2022-09-17T03:42:25.031Z,1010.37
2022-09-17T03:43:24.986Z,1010.41
2022-09-17T03:44:24.985Z,1010.35
2022-09-17T03:45:24.956Z,1010.35
2022-09-17T03:46:24.976Z,1010.34
2022-09-17T03:47:24.952Z,1010.38
2022-09-17T03:48:24.909Z,1010.37
2022-09-17T03:49:24.902Z,1010.44
2022-09-17T03:50:24.880Z,1010.45
2022-09-17T03:51:24.912Z,1010.40
2022-09-17T03:52:24.915Z,1010.45
2022-09-17T03:53:24.867Z,1010.41
2022-09-17T03:54:24.830Z,1010.40
2022-09-17T03:55:24.834Z,1010.43
2022-09-17T03:56:24.803Z,1010.45
2022-09-17T03:57:24.869Z,1010.40
2022-09-17T05:20:49.639Z,1010.94
2022-09-17T05:21:25.431Z,1010.93
2022-09-17T05:22:25.404Z,1010.92
2022-09-17T05:25:04.564Z,1010.87
2022-09-17T06:03:32.143Z,1011.38
2022-09-17T06:04:34.864Z,1011.34
2022-09-17T06:05:32.084Z,1011.32
2022-09-17T06:06:32.104Z,1011.34
2022-09-17T06:07:32.056Z,1011.39
2022-09-17T06:08:32.054Z,1011.32
2022-09-17T06:09:32.043Z,1011.33
2022-09-17T06:10:32.026Z,1011.32
2022-09-17T06:11:32.024Z,1011.39
2022-09-17T06:12:32.002Z,1011.38
2022-09-17T06:13:31.977Z,1011.40
2022-09-17T06:14:31.987Z,1011.36
2022-09-17T06:15:31.946Z,1011.38
2022-09-17T06:16:32.038Z,1011.40
2022-09-17T06:17:31.926Z,1011.38
2022-09-17T06:18:31.915Z,1011.36
2022-09-17T06:19:31.896Z,1011.38
2022-09-17T06:20:31.886Z,1011.43
2022-09-17T06:21:31.893Z,1011.44
2022-09-17T06:22:31.857Z,1011.43
2022-09-17T06:23:31.837Z,1011.48
2022-09-17T06:24:31.847Z,1011.45
2022-09-17T06:25:31.825Z,1011.50
2022-09-17T06:26:31.845Z,1011.51
2022-09-17T06:27:31.794Z,1011.51
2022-09-17T06:28:31.784Z,1011.52
2022-09-17T06:31:01.181Z,1011.53
2022-09-17T06:32:08.573Z,1011.53
2022-09-17T06:33:01.055Z,1011.52
2022-09-17T06:34:01.792Z,1011.56
2022-09-17T06:35:01.029Z,1011.56
2022-09-17T06:36:01.052Z,1011.60
2022-09-17T06:37:01.003Z,1011.56
2022-09-17T06:38:00.996Z,1011.56
2022-09-17T06:48:53.338Z,1011.56
2022-09-17T06:52:06.103Z,1011.56
2022-09-17T06:53:25.770Z,1011.55
2022-09-17T06:56:31.046Z,1011.59
2022-09-17T07:06:30.332Z,1011.62
2022-09-17T07:21:15.595Z,1011.57
2022-09-17T07:23:56.962Z,1011.54
2022-09-17T07:27:42.759Z,1011.52
2022-09-17T07:39:39.823Z,1011.55
2022-09-17T07:44:57.474Z,1011.53
2022-09-17T07:53:29.458Z,1011.47
2022-09-17T07:54:29.414Z,1011.55
2022-09-17T07:55:29.399Z,1011.53
2022-09-17T07:56:40.737Z,1011.59
2022-09-17T07:57:29.377Z,1011.49
2022-09-17T07:58:29.366Z,1011.48
2022-09-17T07:59:29.346Z,1011.42
2022-09-17T08:00:29.339Z,1011.46
2022-09-17T08:01:29.348Z,1011.47
2022-09-17T08:02:29.442Z,1011.45
2022-09-17T08:03:29.295Z,1011.46
2022-09-17T08:04:29.298Z,1011.48
2022-09-17T08:05:29.270Z,1011.47
2022-09-17T08:06:29.258Z,1011.49
2022-09-17T08:07:29.259Z,1011.51
2022-09-17T08:08:29.239Z,1011.49
2022-09-17T08:09:29.220Z,1011.45
2022-09-17T08:10:29.211Z,1011.50
2022-09-17T08:12:30.199Z,1011.51
2022-09-17T08:13:29.160Z,1011.49
2022-09-17T08:14:30.084Z,1011.52
2022-09-17T08:15:29.140Z,1011.58
2022-09-17T08:16:29.179Z,1011.53
2022-09-17T08:17:29.152Z,1011.59
2022-09-17T08:18:29.099Z,1011.56
2022-09-17T08:19:29.080Z,1011.53
2022-09-17T08:20:29.071Z,1011.55
2022-09-17T08:21:29.059Z,1011.54
2022-09-17T08:22:29.074Z,1011.51
2022-09-17T08:23:29.030Z,1011.52
2022-09-17T08:24:29.022Z,1011.56
2022-09-17T08:25:29.004Z,1011.51
2022-09-17T08:26:29.012Z,1011.52
2022-09-17T08:27:28.992Z,1011.52
2022-09-17T08:28:28.961Z,1011.47
2022-09-17T08:29:32.089Z,1011.51
2022-09-17T08:30:29.960Z,1011.49
2022-09-17T08:31:28.958Z,1011.53
2022-09-17T08:32:28.951Z,1011.53
2022-09-17T08:34:59.127Z,1011.57
2022-09-17T08:35:59.107Z,1011.62
2022-09-17T08:36:59.133Z,1011.59
2022-09-17T08:37:59.079Z,1011.54
2022-09-17T08:38:59.083Z,1011.53
2022-09-17T08:39:59.085Z,1011.59
2022-09-17T08:40:59.038Z,1011.54
2022-09-17T08:41:59.063Z,1011.52
2022-09-17T08:42:59.019Z,1011.52
2022-09-17T08:43:59.077Z,1011.54
2022-09-17T08:45:00.833Z,1011.55
2022-09-17T08:45:58.977Z,1011.54
2022-09-17T08:46:59.048Z,1011.54
2022-09-17T08:47:58.940Z,1011.49
2022-09-17T08:48:58.932Z,1011.54
2022-09-17T08:49:58.920Z,1011.54
2022-09-17T08:51:03.277Z,1011.50
2022-09-17T08:51:59.950Z,1011.53
2022-09-17T08:52:58.879Z,1011.58
2022-09-17T08:53:58.865Z,1011.63
2022-09-17T08:54:58.866Z,1011.58
2022-09-17T08:55:58.840Z,1011.60
2022-09-17T08:56:58.852Z,1011.51
2022-09-17T08:57:58.802Z,1011.55
2022-09-17T08:58:58.853Z,1011.48
2022-09-17T08:59:58.809Z,1011.49
2022-09-17T09:00:58.839Z,1011.49
2022-09-17T09:01:58.864Z,1011.48
2022-09-17T09:02:58.800Z,1011.53
2022-09-17T09:03:58.722Z,1011.58
2022-09-17T09:04:58.722Z,1011.55
2022-09-17T09:05:58.693Z,1011.57
2022-09-17T09:06:58.713Z,1011.57
2022-09-17T09:07:58.689Z,1011.55
2022-09-17T09:08:58.665Z,1011.56
2022-09-17T09:09:58.652Z,1011.50
2022-09-17T09:10:58.633Z,1011.55
2022-09-17T09:11:58.662Z,1011.59
2022-09-17T09:12:58.623Z,1011.58
2022-09-17T09:13:58.646Z,1011.59
2022-09-17T09:14:58.594Z,1011.57
2022-09-17T09:15:58.651Z,1011.53
2022-09-17T09:16:58.582Z,1011.71
2022-09-17T09:17:58.534Z,1011.55
2022-09-17T09:18:58.524Z,1011.61
2022-09-17T09:19:58.514Z,1011.56
2022-09-17T09:20:58.495Z,1011.50
2022-09-17T09:21:58.535Z,1011.61
2022-09-17T09:22:58.476Z,1011.61
2022-09-17T09:23:58.468Z,1011.55
2022-09-17T09:24:58.445Z,1011.54
2022-09-17T09:25:58.424Z,1011.63
2022-09-17T09:26:58.861Z,1011.51
2022-09-17T09:27:58.397Z,1011.50
2022-09-17T09:28:58.439Z,1011.59
2022-09-17T09:29:58.378Z,1011.55
2022-09-17T09:30:58.430Z,1011.57
2022-09-17T09:31:58.367Z,1011.60
2022-09-17T09:32:58.343Z,1011.53
2022-09-17T09:33:58.314Z,1011.51
2022-09-17T09:34:58.308Z,1011.47
2022-09-17T09:35:58.292Z,1011.50
2022-09-17T09:36:58.306Z,1011.50
2022-09-17T09:37:58.307Z,1011.43
2022-09-17T09:38:58.249Z,1011.43
2022-09-17T09:39:58.295Z,1011.51
2022-09-17T09:40:58.226Z,1011.52
2022-09-17T09:41:58.248Z,1011.52
2022-09-17T09:42:58.197Z,1011.53
2022-09-17T09:44:05.767Z,1011.53
2022-09-17T09:45:04.145Z,1011.50
2022-09-17T09:45:59.156Z,1011.42
2022-09-17T09:46:58.294Z,1011.44
2022-09-17T09:47:58.138Z,1011.43
2022-09-17T09:48:58.120Z,1011.40
2022-09-17T09:49:58.112Z,1011.41
2022-09-17T09:51:06.963Z,1011.40
2022-09-17T09:51:59.090Z,1011.42
2022-09-17T09:52:58.081Z,1011.45
2022-09-17T09:53:58.042Z,1011.49
2022-09-17T09:54:58.043Z,1011.33
2022-09-17T09:55:58.013Z,1011.42
2022-09-17T09:56:58.987Z,1011.42
2022-09-17T09:57:58.001Z,1011.44
2022-09-17T09:58:58.086Z,1011.39
2022-09-17T09:59:57.963Z,1011.38
2022-09-17T10:00:57.959Z,1011.33
2022-09-17T10:01:58.043Z,1011.34
2022-09-17T10:02:57.971Z,1011.48
2022-09-17T10:03:57.911Z,1011.28
2022-09-17T10:04:57.894Z,1011.37
2022-09-17T10:05:57.882Z,1011.40
2022-09-17T10:06:57.894Z,1011.41
2022-09-17T10:07:57.856Z,1011.40
2022-09-17T10:08:57.844Z,1011.41
2022-09-17T10:09:57.828Z,1011.43
2022-09-17T10:10:57.836Z,1011.38
2022-09-17T10:11:57.825Z,1011.40
2022-09-17T10:12:57.785Z,1011.37
2022-09-17T10:13:57.844Z,1011.46
2022-09-17T10:14:57.763Z,1011.40
2022-09-17T10:15:57.833Z,1011.30
2022-09-17T10:16:57.763Z,1011.33
2022-09-17T10:17:57.716Z,1011.27
2022-09-17T10:18:57.717Z,1011.20
2022-09-17T10:19:57.696Z,1011.20
2022-09-17T10:20:57.676Z,1011.25
2022-09-17T10:21:57.696Z,1011.14
2022-09-17T10:22:57.674Z,1011.10
2022-09-17T10:23:57.637Z,1011.27
2022-09-17T10:24:57.629Z,1011.23
2022-09-17T10:25:57.608Z,1011.29
2022-09-17T10:26:57.626Z,1011.36
2022-09-17T10:27:57.599Z,1011.36
2022-09-17T10:28:57.618Z,1011.39
2022-09-17T10:29:57.554Z,1011.36
2022-09-17T10:30:57.600Z,1011.34
2022-09-17T10:31:57.611Z,1011.34
2022-09-17T10:32:57.547Z,1011.32
2022-09-17T10:33:57.498Z,1011.33
2022-09-17T10:34:57.489Z,1011.29
2022-09-17T10:35:57.469Z,1011.27
2022-09-17T10:36:57.510Z,1011.28
2022-09-17T10:37:57.449Z,1011.22
2022-09-17T10:38:57.440Z,1011.24
2022-09-17T10:39:57.446Z,1011.22
2022-09-17T10:40:57.411Z,1011.14
2022-09-17T10:41:57.420Z,1011.29
2022-09-17T10:42:57.401Z,1011.10
2022-09-17T10:43:57.490Z,1011.14
2022-09-17T10:44:57.359Z,1011.06
2022-09-17T10:45:57.344Z,1011.07
2022-09-17T10:46:57.404Z,1011.07
2022-09-17T10:47:57.311Z,1010.95
2022-09-17T10:48:57.312Z,1011.10
2022-09-17T10:49:57.291Z,1010.88
2022-09-17T10:50:57.279Z,1010.95
2022-09-17T10:51:57.290Z,1010.89
2022-09-17T10:52:57.243Z,1010.96
2022-09-17T10:53:57.234Z,1010.97
2022-09-17T10:54:57.223Z,1010.99
2022-09-17T10:55:57.203Z,1011.04
2022-09-17T10:56:57.224Z,1010.82
2022-09-17T10:57:57.173Z,1010.89
2022-09-17T10:58:57.172Z,1010.86
2022-09-17T10:59:57.143Z,1010.77
2022-09-17T11:00:57.149Z,1010.75
2022-09-17T11:01:57.227Z,1010.74
2022-09-17T11:02:57.174Z,1010.72
2022-09-17T11:03:57.100Z,1010.51
2022-09-17T11:04:57.087Z,1010.50
2022-09-17T11:05:57.093Z,1010.55
2022-09-17T11:06:57.085Z,1010.68
2022-09-17T11:07:57.046Z,1010.65
2022-09-17T11:08:57.048Z,1010.62
2022-09-17T11:09:57.040Z,1010.74
2022-09-17T11:10:56.997Z,1010.80
2022-09-17T11:11:57.013Z,1010.78
2022-09-17T11:12:56.976Z,1010.77
2022-09-17T11:13:56.959Z,1010.83
2022-09-17T11:14:56.949Z,1010.78
2022-09-17T11:15:56.965Z,1010.85
2022-09-17T11:16:56.946Z,1010.83
2022-09-17T11:17:56.899Z,1010.87
2022-09-17T11:18:56.896Z,1010.87
2022-09-17T11:19:56.889Z,1010.84
2022-09-17T11:20:56.870Z,1010.88
2022-09-17T11:21:56.876Z,1011.06
2022-09-17T11:22:56.840Z,1011.00
2022-09-17T11:23:56.820Z,1011.00
2022-09-17T11:24:56.813Z,1011.14
2022-09-17T11:26:00.463Z,1011.16
2022-09-17T11:26:56.809Z,1011.08
2022-09-17T11:27:56.778Z,1011.07
2022-09-17T11:28:56.759Z,1011.00
2022-09-17T11:29:56.742Z,1011.29
2022-09-17T11:30:56.820Z,1011.13
2022-09-17T11:31:56.788Z,1011.18
2022-09-17T11:32:56.704Z,1011.20
2022-09-17T11:36:25.847Z,1011.25
2022-09-17T11:37:25.857Z,1011.31
2022-09-17T11:38:25.815Z,1011.14
2022-09-17T11:39:25.804Z,1010.96
2022-09-17T11:40:25.880Z,1010.88
2022-09-17T11:41:25.787Z,1011.08
2022-09-17T11:42:25.787Z,1011.02
2022-09-17T11:43:25.763Z,1010.94
2022-09-17T11:44:25.740Z,1010.92
2022-09-17T11:45:25.724Z,1010.95
2022-09-17T11:46:25.780Z,1010.99
2022-09-17T11:47:25.717Z,1010.96
2022-09-17T11:48:25.686Z,1010.89
2022-09-17T11:49:25.673Z,1010.92
2022-09-17T11:50:25.657Z,1010.95
2022-09-17T11:51:25.645Z,1010.84
2022-09-17T11:52:25.669Z,1010.86
2022-09-17T11:53:25.618Z,1010.82
2022-09-17T11:54:25.606Z,1010.85
2022-09-17T11:55:25.590Z,1010.83
2022-09-17T11:56:25.569Z,1010.75
2022-09-17T11:57:25.598Z,1010.68
2022-09-17T11:58:25.549Z,1010.80
2022-09-17T11:59:25.539Z,1010.65
2022-09-17T12:00:25.529Z,1010.61
2022-09-17T12:01:25.512Z,1010.52
2022-09-17T12:02:25.609Z,1010.62
2022-09-17T12:03:25.557Z,1010.63
2022-09-17T12:04:25.473Z,1010.66
2022-09-17T12:07:05.677Z,1010.66
2022-09-17T12:08:05.628Z,1010.64
2022-09-17T12:09:05.618Z,1010.82
2022-09-17T12:10:05.608Z,1010.68
2022-09-17T12:11:05.601Z,1010.56
2022-09-17T12:12:05.601Z,1010.60
2022-09-17T12:13:05.571Z,1010.60
2022-09-17T12:16:01.281Z,1010.65
2022-09-17T12:17:01.239Z,1010.64
2022-09-17T12:19:56.389Z,1010.45
2022-09-17T12:20:56.339Z,1010.46
2022-09-17T12:21:56.333Z,1010.51
2022-09-17T12:22:56.333Z,1010.53
2022-09-17T12:25:35.848Z,1010.71
2022-09-17T12:26:35.829Z,1011.06
2022-09-17T12:27:35.835Z,1011.12
2022-09-17T12:28:35.810Z,1011.34
2022-09-17T12:29:35.802Z,1011.31
2022-09-17T12:30:35.770Z,1011.39
2022-09-17T12:31:35.801Z,1011.67
2022-09-17T12:32:35.778Z,1011.73
2022-09-17T12:33:35.729Z,1011.76
2022-09-17T12:34:35.728Z,1011.67
2022-09-17T12:36:02.352Z,1011.66
2022-09-17T12:36:36.693Z,1011.60
2022-09-17T12:37:35.691Z,1011.44
2022-09-17T12:38:35.660Z,1011.37
2022-09-17T12:39:35.642Z,1011.44
2022-09-17T12:40:35.704Z,1011.31
2022-09-17T12:41:35.630Z,1011.25
2022-09-17T12:42:35.632Z,1011.23
2022-09-17T12:43:35.625Z,1011.29
2022-09-17T12:44:35.583Z,1011.26
2022-09-17T12:45:35.565Z,1011.26
2022-09-17T12:46:35.598Z,1011.23
2022-09-17T12:47:35.554Z,1011.17
2022-09-17T12:48:35.523Z,1011.06
2022-09-17T12:49:35.515Z,1011.00
2022-09-17T12:50:35.498Z,1010.85
2022-09-17T12:51:35.475Z,1010.84
2022-09-17T12:52:35.493Z,1010.84
2022-09-17T12:53:35.454Z,1010.80
2022-09-17T12:54:35.444Z,1010.81
2022-09-17T12:55:35.424Z,1010.80
2022-09-17T12:56:35.416Z,1010.85
2022-09-17T12:57:35.414Z,1010.84
2022-09-17T12:58:35.384Z,1010.86
2022-09-17T12:59:35.396Z,1010.82
2022-09-17T13:00:35.384Z,1010.77
2022-09-17T13:01:35.438Z,1010.74
2022-09-17T13:02:35.385Z,1010.73
2022-09-17T13:03:35.316Z,1010.77
2022-09-17T13:04:59.530Z,1010.77
2022-09-17T13:05:36.323Z,1010.75
2022-09-17T13:06:35.277Z,1010.77
2022-09-17T13:07:35.287Z,1010.73
2022-09-17T13:08:35.258Z,1010.64
2022-09-17T13:09:35.238Z,1010.63
2022-09-17T13:10:35.227Z,1010.63
2022-09-17T13:11:35.879Z,1010.60
2022-09-17T13:12:35.235Z,1010.53
2022-09-17T13:13:35.178Z,1010.45
2022-09-17T13:14:35.169Z,1010.51
2022-09-17T13:15:35.161Z,1010.53
2022-09-17T13:16:35.214Z,1010.59
2022-09-17T13:17:35.160Z,1010.56
2022-09-17T13:18:35.120Z,1010.54
2022-09-17T13:19:35.099Z,1010.56
2022-09-17T13:20:35.115Z,1010.50
2022-09-17T13:21:35.073Z,1010.50
2022-09-17T13:22:35.088Z,1010.47
2022-09-17T13:23:35.050Z,1010.40
2022-09-17T13:24:35.039Z,1010.40
2022-09-17T13:25:35.023Z,1010.46
2022-09-17T13:26:35.000Z,1010.46
2022-09-17T13:27:35.041Z,1010.43
2022-09-17T13:28:34.982Z,1010.40
2022-09-17T13:29:34.979Z,1010.47
2022-09-17T13:30:34.960Z,1010.46
2022-09-17T13:31:34.987Z,1010.51
2022-09-17T13:32:34.968Z,1010.44
2022-09-17T13:33:34.912Z,1010.40
2022-09-17T13:34:34.902Z,1010.43
2022-09-17T13:35:34.892Z,1010.43
2022-09-17T13:36:34.885Z,1010.44
2022-09-17T13:37:34.886Z,1010.42
2022-09-17T13:38:34.843Z,1010.41
2022-09-17T13:39:34.833Z,1010.38
2022-09-17T13:40:34.932Z,1010.37
2022-09-17T13:41:34.803Z,1010.35
2022-09-17T13:42:34.806Z,1010.34
2022-09-17T13:43:34.786Z,1010.43
2022-09-17T13:44:34.773Z,1010.36
2022-09-17T13:45:34.757Z,1010.32
2022-09-17T13:46:34.779Z,1010.28
2022-09-17T13:47:34.751Z,1010.31
2022-09-17T13:48:34.725Z,1010.33
2022-09-17T13:49:34.730Z,1010.30
2022-09-17T13:50:34.687Z,1010.31
2022-09-17T13:51:34.696Z,1010.34
2022-09-17T13:52:34.650Z,1010.31
2022-09-17T13:53:34.635Z,1010.29
2022-09-17T13:54:34.623Z,1010.35
2022-09-17T13:55:34.617Z,1010.30
2022-09-17T13:56:34.628Z,1010.39
2022-09-17T13:57:34.588Z,1010.51
2022-09-17T13:58:34.568Z,1010.53
2022-09-17T13:59:34.576Z,1010.64
2022-09-17T14:00:34.573Z,1010.59
2022-09-17T14:01:34.558Z,1010.66
2022-09-17T14:02:34.554Z,1010.65
2022-09-17T14:03:34.508Z,1010.79
2022-09-17T14:04:34.494Z,1010.87
2022-09-17T14:05:34.478Z,1011.18
2022-09-17T14:06:34.488Z,1011.10
2022-09-17T14:07:34.468Z,1011.11
2022-09-17T14:08:34.440Z,1011.15
2022-09-17T14:09:38.622Z,1010.96
2022-09-17T14:10:35.422Z,1010.95
2022-09-17T14:11:34.421Z,1010.89
2022-09-17T14:12:34.382Z,1010.91
2022-09-17T14:13:34.378Z,1010.87
2022-09-17T14:14:34.352Z,1010.90
2022-09-17T14:15:34.356Z,1010.78
2022-09-17T14:16:34.389Z,1010.85
2022-09-17T14:17:34.314Z,1010.89
2022-09-17T14:18:34.290Z,1010.83
2022-09-17T14:19:34.308Z,1010.88
2022-09-17T14:20:34.269Z,1010.90
2022-09-17T14:21:34.289Z,1010.95
2022-09-17T14:22:34.249Z,1010.93
2022-09-17T14:23:34.231Z,1010.93
2022-09-17T14:24:34.213Z,1011.01
2022-09-17T14:25:34.202Z,1010.98
2022-09-17T14:26:34.232Z,1010.94
2022-09-17T14:27:36.550Z,1010.95
2022-09-17T14:28:35.169Z,1010.93
2022-09-17T14:29:34.152Z,1011.03
2022-09-17T14:30:34.153Z,1011.07
2022-09-17T14:31:34.167Z,1011.06
2022-09-17T14:32:34.106Z,1010.99
2022-09-17T14:33:34.101Z,1011.02
2022-09-17T14:34:34.077Z,1011.02
2022-09-17T14:35:34.070Z,1010.99
2022-09-17T14:36:34.077Z,1011.00
2022-09-17T14:37:34.043Z,1011.08
2022-09-17T14:38:34.030Z,1010.96
2022-09-17T14:39:34.020Z,1010.95
2022-09-17T14:40:34.047Z,1011.02
2022-09-17T14:41:34.044Z,1010.94
2022-09-17T14:42:33.966Z,1010.98
2022-09-17T14:43:33.992Z,1010.89
2022-09-17T14:44:33.961Z,1010.86
2022-09-17T14:45:33.935Z,1010.82
2022-09-17T14:46:34.053Z,1010.83
2022-09-17T14:47:33.907Z,1010.83
2022-09-17T14:48:33.889Z,1010.80
2022-09-17T14:49:33.907Z,1010.85
2022-09-17T14:50:33.857Z,1010.84
2022-09-17T14:51:33.887Z,1010.85
2022-09-17T14:52:33.843Z,1010.81
2022-09-17T14:53:33.827Z,1010.83
2022-09-17T14:54:36.329Z,1010.93
2022-09-17T14:55:33.801Z,1010.85
2022-09-17T14:56:33.809Z,1010.91
2022-09-17T14:57:33.768Z,1010.84
2022-09-17T14:58:33.758Z,1011.03
2022-09-17T14:59:33.738Z,1010.88
2022-09-17T15:00:33.728Z,1010.83
2022-09-17T15:01:33.771Z,1010.79
2022-09-17T15:02:33.752Z,1010.95
2022-09-17T15:03:33.689Z,1010.92
2022-09-17T15:04:33.669Z,1010.90
2022-09-17T15:05:33.686Z,1010.88
2022-09-17T15:06:33.668Z,1010.86
2022-09-17T15:07:33.637Z,1010.92
2022-09-17T15:08:33.611Z,1011.04
2022-09-17T15:09:33.600Z,1010.94
2022-09-17T15:10:33.623Z,1010.88
2022-09-17T15:11:41.513Z,1010.88
2022-09-17T15:12:33.563Z,1010.95
2022-09-17T15:13:33.554Z,1010.85
2022-09-17T15:14:33.535Z,1010.90
2022-09-17T15:15:33.528Z,1010.89
2022-09-17T15:16:33.586Z,1010.84
2022-09-17T15:17:33.497Z,1010.84
2022-09-17T15:18:33.488Z,1010.94
2022-09-17T15:19:33.483Z,1010.79
2022-09-17T15:20:33.462Z,1010.87
2022-09-17T15:21:33.472Z,1010.96
2022-09-17T15:22:33.430Z,1010.89
2022-09-17T15:23:33.422Z,1010.87
2022-09-17T15:26:02.931Z,1010.87